Time,TemperatureF,DewpointF,PressureIn,WindDirection,WindDirectionDegrees,WindSpeedMPH,WindSpeedGustMPH,Humidity,HourlyPrecipIn,Conditions,Clouds,dailyrainin,SoftwareType,DateUTC
2013-02-06 00:00:00,68.4,60.2,29.91,North,0,0.0,0.0,69,0.00,,,-99.99,Homeseer,2013-02-06 05:00:00,
2013-02-06 00:10:00,68.0,60.1,29.91,North,0,0.0,0.0,70,0.00,,,-99.99,Homeseer,2013-02-06 05:10:00,
2013-02-06 00:20:00,67.8,60.3,29.91,North,0,0.0,0.0,71,0.00,,,-99.99,Homeseer,2013-02-06 05:20:00,
2013-02-06 00:30:00,67.8,60.6,29.91,North,0,0.0,0.0,72,0.00,,,-99.99,Homeseer,2013-02-06 05:30:00,
2013-02-06 00:40:00,67.6,60.4,29.91,North,0,0.0,0.0,72,0.00,,,-99.99,Homeseer,2013-02-06 05:40:00,
2013-02-06 00:50:00,67.5,60.3,29.91,North,0,0.0,0.0,72,0.00,,,-99.99,Homeseer,2013-02-06 05:50:00,
2013-02-06 01:00:00,67.3,60.7,29.91,North,0,0.0,0.0,74,0.00,,,-99.99,Homeseer,2013-02-06 06:00:00,
2013-02-06 01:10:00,67.3,61.0,29.91,North,0,0.0,0.0,75,0.00,,,-99.99,Homeseer,2013-02-06 06:10:00,
2013-02-06 01:20:00,67.1,61.1,29.91,North,0,0.0,0.0,76,0.00,,,-99.99,Homeseer,2013-02-06 06:20:00,
2013-02-06 01:30:00,67.1,61.1,29.91,North,0,0.0,0.0,76,0.00,,,-99.99,Homeseer,2013-02-06 06:30:00,
2013-02-06 01:40:00,66.9,61.1,29.91,North,0,0.0,0.0,77,0.00,,,-99.99,Homeseer,2013-02-06 06:40:00,
2013-02-06 01:50:00,66.9,61.1,29.91,North,0,0.0,0.0,77,0.00,,,-99.99,Homeseer,2013-02-06 06:50:00,
2013-02-06 02:00:00,66.7,61.2,29.91,North,0,0.0,0.0,78,0.00,,,-99.99,Homeseer,2013-02-06 07:00:00,
2013-02-06 02:10:00,66.7,61.2,29.91,North,0,0.0,0.0,78,0.00,,,-99.99,Homeseer,2013-02-06 07:10:00,
2013-02-06 02:20:00,66.4,61.2,29.91,NNE,22,0.0,0.0,79,0.00,,,-99.99,Homeseer,2013-02-06 07:20:00,
2013-02-06 02:30:00,66.4,61.8,29.88,North,0,0.0,0.0,81,0.00,,,-99.99,Homeseer,2013-02-06 07:30:00,
2013-02-06 02:40:00,66.4,62.0,29.88,North,0,0.0,0.0,82,0.00,,,-99.99,Homeseer,2013-02-06 07:40:00,
2013-02-06 02:50:00,66.2,61.8,29.88,North,0,0.0,0.0,82,0.00,,,-99.99,Homeseer,2013-02-06 07:50:00,
2013-02-06 03:00:00,66.2,62.1,29.88,North,0,0.0,0.0,83,0.00,,,-99.99,Homeseer,2013-02-06 08:00:00,
2013-02-06 03:10:00,66.2,62.1,29.88,WNW,297,0.0,0.0,83,0.00,,,-99.99,Homeseer,2013-02-06 08:10:00,
2013-02-06 03:20:00,65.8,62.0,29.88,WNW,297,0.0,0.0,84,0.00,,,-99.99,Homeseer,2013-02-06 08:20:00,
2013-02-06 03:30:00,65.7,62.1,29.88,WNW,297,0.0,0.0,85,0.00,,,-99.99,Homeseer,2013-02-06 08:30:00,
2013-02-06 03:40:00,65.5,61.9,29.88,North,0,0.0,0.0,85,0.00,,,-99.99,Homeseer,2013-02-06 08:40:00,
2013-02-06 03:50:00,65.5,62.4,29.88,North,0,0.0,0.0,87,0.00,,,-99.99,Homeseer,2013-02-06 08:50:00,
2013-02-06 04:00:00,65.5,62.7,29.88,North,0,0.0,0.0,88,0.00,,,-99.99,Homeseer,2013-02-06 09:00:00,
2013-02-06 04:10:00,65.5,62.7,29.88,North,0,0.0,0.0,88,0.00,,,-99.99,Homeseer,2013-02-06 09:10:00,
2013-02-06 04:20:00,65.5,62.9,29.88,NNE,22,0.0,0.0,89,0.00,,,-99.99,Homeseer,2013-02-06 09:20:00,
2013-02-06 04:30:00,65.1,62.8,29.88,North,0,0.0,0.0,90,0.00,,,-99.99,Homeseer,2013-02-06 09:30:00,
2013-02-06 04:40:00,65.1,62.8,29.88,North,0,0.0,0.0,90,0.00,,,-99.99,Homeseer,2013-02-06 09:40:00,
2013-02-06 04:50:00,65.1,62.8,29.91,North,0,0.0,0.0,90,0.00,,,-99.99,Homeseer,2013-02-06 09:50:00,
2013-02-06 05:00:00,64.9,62.6,29.88,North,0,0.0,0.0,90,0.00,,,-99.99,Homeseer,2013-02-06 10:00:00,
2013-02-06 05:10:00,64.9,62.6,29.88,North,0,0.0,0.0,90,0.00,,,-99.99,Homeseer,2013-02-06 10:10:00,
2013-02-06 05:20:00,64.9,62.8,29.91,WNW,297,0.0,0.0,91,0.00,,,-99.99,Homeseer,2013-02-06 10:20:00,
2013-02-06 05:30:00,64.6,62.5,29.91,WNW,297,0.0,0.0,91,0.00,,,-99.99,Homeseer,2013-02-06 10:30:00,
2013-02-06 05:40:00,64.8,62.7,29.91,WNW,297,0.0,0.0,91,0.00,,,-99.99,Homeseer,2013-02-06 10:40:00,
2013-02-06 05:50:00,64.8,62.7,29.91,WNW,297,0.0,0.0,91,0.00,,,-99.99,Homeseer,2013-02-06 10:50:00,
2013-02-06 06:00:00,64.8,62.7,29.91,North,0,0.0,0.0,91,0.00,,,-99.99,Homeseer,2013-02-06 11:00:00,
2013-02-06 06:10:00,64.8,62.7,29.91,North,0,0.0,0.0,91,0.00,,,-99.99,Homeseer,2013-02-06 11:10:00,
2013-02-06 06:20:00,64.6,62.5,29.91,NNE,22,0.0,0.0,91,0.00,,,-99.99,Homeseer,2013-02-06 11:20:00,
2013-02-06 06:30:00,64.4,62.3,29.94,NNE,22,0.0,0.0,91,0.00,,,-99.99,Homeseer,2013-02-06 11:30:00,
2013-02-06 06:40:00,64.4,62.3,29.94,NNE,22,0.0,0.0,91,0.00,,,-99.99,Homeseer,2013-02-06 11:40:00,
2013-02-06 06:50:00,64.4,62.3,29.94,NNE,22,0.0,0.0,91,0.00,,,-99.99,Homeseer,2013-02-06 11:50:00,
2013-02-06 07:00:00,64.4,62.3,29.94,North,0,0.0,0.0,91,0.00,,,-99.99,Homeseer,2013-02-06 12:00:00,
2013-02-06 07:10:00,64.2,62.4,29.94,North,0,0.0,0.0,92,0.00,,,-99.99,Homeseer,2013-02-06 12:10:00,
2013-02-06 07:20:00,64.4,62.3,29.94,NNE,22,0.0,0.0,91,0.00,,,-99.99,Homeseer,2013-02-06 12:20:00,
2013-02-06 07:30:00,64.6,62.8,29.94,WNW,297,0.0,0.0,92,0.00,,,-99.99,Homeseer,2013-02-06 12:30:00,
2013-02-06 07:40:00,64.8,63.0,29.94,WNW,297,0.0,0.0,92,0.00,,,-99.99,Homeseer,2013-02-06 12:40:00,
2013-02-06 07:50:00,65.1,63.3,29.94,WNW,297,0.0,0.0,92,0.00,,,-99.99,Homeseer,2013-02-06 12:50:00,
2013-02-06 08:00:00,65.3,63.5,29.94,North,0,0.0,0.0,92,0.00,,,-99.99,Homeseer,2013-02-06 13:00:00,
2013-02-06 08:10:00,65.8,64.0,29.94,North,0,1.6,1.6,92,0.00,,,-99.99,Homeseer,2013-02-06 13:10:00,
2013-02-06 08:20:00,66.4,64.1,29.94,North,0,2.7,3.1,90,0.00,,,-99.99,Homeseer,2013-02-06 13:20:00,
2013-02-06 08:30:00,67.1,64.8,29.97,North,0,2.5,2.7,90,0.00,,,-99.99,Homeseer,2013-02-06 13:30:00,
2013-02-06 08:40:00,67.8,65.2,29.97,North,0,2.9,2.9,89,0.00,,,-99.99,Homeseer,2013-02-06 13:40:00,
2013-02-06 08:50:00,68.4,65.5,29.97,North,0,1.1,1.1,88,0.00,,,-99.99,Homeseer,2013-02-06 13:50:00,
2013-02-06 09:00:00,69.3,66.2,29.97,North,0,2.2,2.7,87,0.00,,,-99.99,Homeseer,2013-02-06 14:00:00,
2013-02-06 09:10:00,69.8,65.9,29.97,North,0,3.4,3.4,84,0.00,,,-99.99,Homeseer,2013-02-06 14:10:00,
2013-02-06 09:20:00,70.3,66.4,29.97,North,0,0.0,0.0,84,0.00,,,-99.99,Homeseer,2013-02-06 14:20:00,
2013-02-06 09:30:00,71.2,67.0,29.97,WNW,297,0.0,0.0,83,0.00,,,-99.99,Homeseer,2013-02-06 14:30:00,
2013-02-06 09:40:00,71.4,66.6,29.97,North,0,0.0,0.0,81,0.00,,,-99.99,Homeseer,2013-02-06 14:40:00,
2013-02-06 09:50:00,72.1,67.0,29.97,SE,135,2.2,2.2,80,0.00,,,-99.99,Homeseer,2013-02-06 14:50:00,
2013-02-06 10:00:00,72.7,67.6,29.97,SE,135,2.2,2.2,80,0.00,,,-99.99,Homeseer,2013-02-06 15:00:00,
2013-02-06 10:10:00,73.2,67.8,29.97,East,90,2.7,3.4,79,0.00,,,-99.99,Homeseer,2013-02-06 15:10:00,
2013-02-06 10:20:00,73.6,67.3,29.97,SSE,157,1.6,2.5,76,0.00,,,-99.99,Homeseer,2013-02-06 15:20:00,
2013-02-06 10:30:00,74.1,67.5,29.97,South,180,2.5,2.5,75,0.00,,,-99.99,Homeseer,2013-02-06 15:30:00,
2013-02-06 10:40:00,74.7,67.8,29.97,SSE,157,2.0,3.4,74,0.00,,,-99.99,Homeseer,2013-02-06 15:40:00,
2013-02-06 10:50:00,74.7,66.8,29.97,ESE,112,2.0,2.9,71,0.00,,,-99.99,Homeseer,2013-02-06 15:50:00,
2013-02-06 11:00:00,75.0,67.4,29.97,ESE,112,4.0,4.0,72,0.00,,,-99.99,Homeseer,2013-02-06 16:00:00,
2013-02-06 11:10:00,75.4,67.2,29.97,ESE,112,2.7,2.7,70,0.00,,,-99.99,Homeseer,2013-02-06 16:10:00,
2013-02-06 11:20:00,75.6,67.0,29.97,ESE,112,3.8,4.9,69,0.00,,,-99.99,Homeseer,2013-02-06 16:20:00,
2013-02-06 11:30:00,75.9,67.3,29.97,SSE,157,2.9,4.3,69,0.00,,,-99.99,Homeseer,2013-02-06 16:30:00,
2013-02-06 11:40:00,75.9,66.3,29.97,SSE,157,2.7,2.7,66,0.00,,,-99.99,Homeseer,2013-02-06 16:40:00,
2013-02-06 11:50:00,76.3,64.2,29.97,North,0,4.3,4.3,59,0.00,,,-99.99,Homeseer,2013-02-06 16:50:00,
2013-02-06 12:00:00,77.0,62.9,29.97,SE,135,4.3,5.6,54,0.00,,,-99.99,Homeseer,2013-02-06 17:00:00,
2013-02-06 12:10:00,77.4,62.9,29.97,SSE,157,3.6,5.6,53,0.00,,,-99.99,Homeseer,2013-02-06 17:10:00,
2013-02-06 12:20:00,77.4,62.0,29.94,WSW,247,3.6,3.6,51,0.00,,,-99.99,Homeseer,2013-02-06 17:20:00,
2013-02-06 12:30:00,77.9,62.5,29.94,SSE,157,2.2,4.0,51,0.00,,,-99.99,Homeseer,2013-02-06 17:30:00,
2013-02-06 12:40:00,78.1,62.7,29.94,SSE,157,3.8,4.3,51,0.00,,,-99.99,Homeseer,2013-02-06 17:40:00,
2013-02-06 12:50:00,77.4,61.2,29.94,ESE,112,4.3,7.4,49,0.00,,,-99.99,Homeseer,2013-02-06 17:50:00,
2013-02-06 13:00:00,78.3,62.0,29.94,SSE,157,3.1,5.6,49,0.00,,,-99.99,Homeseer,2013-02-06 18:00:00,
2013-02-06 13:10:00,78.4,61.6,29.94,SSE,157,3.6,3.6,48,0.00,,,-99.99,Homeseer,2013-02-06 18:10:00,
2013-02-06 13:20:00,78.1,62.2,29.94,South,180,3.4,4.9,50,0.00,,,-99.99,Homeseer,2013-02-06 18:20:00,
2013-02-06 13:30:00,77.9,61.6,29.94,SSE,157,3.8,4.0,49,0.00,,,-99.99,Homeseer,2013-02-06 18:30:00,
2013-02-06 13:40:00,78.1,62.7,29.94,SE,135,2.0,5.4,51,0.00,,,-99.99,Homeseer,2013-02-06 18:40:00,
2013-02-06 13:50:00,77.4,62.0,29.91,North,0,3.1,3.1,51,0.00,,,-99.99,Homeseer,2013-02-06 18:50:00,
2013-02-06 14:00:00,77.2,61.4,29.91,SE,135,3.4,3.4,50,0.00,,,-99.99,Homeseer,2013-02-06 19:00:00,
2013-02-06 14:10:00,77.4,61.6,29.91,North,0,3.1,4.3,50,0.00,,,-99.99,Homeseer,2013-02-06 19:10:00,
2013-02-06 14:20:00,77.0,61.7,29.91,SSE,157,2.7,2.7,51,0.00,,,-99.99,Homeseer,2013-02-06 19:20:00,
2013-02-06 14:30:00,77.2,61.8,29.91,SSE,157,2.5,5.4,51,0.00,,,-99.99,Homeseer,2013-02-06 19:30:00,
2013-02-06 14:40:00,76.8,61.5,29.91,SSE,157,3.8,3.8,51,0.00,,,-99.99,Homeseer,2013-02-06 19:40:00,
2013-02-06 14:50:00,76.5,61.6,29.91,South,180,2.9,3.1,52,0.00,,,-99.99,Homeseer,2013-02-06 19:50:00,
2013-02-06 15:00:00,76.3,61.9,29.91,ESE,112,3.8,3.8,53,0.00,,,-99.99,Homeseer,2013-02-06 20:00:00,
2013-02-06 15:10:00,75.9,60.7,29.91,SSE,157,4.7,4.7,51,0.00,,,-99.99,Homeseer,2013-02-06 20:10:00,
2013-02-06 15:20:00,75.9,61.9,29.91,South,180,4.9,7.6,54,0.00,,,-99.99,Homeseer,2013-02-06 20:20:00,
2013-02-06 15:30:00,75.7,60.9,29.91,SSE,157,5.8,5.8,52,0.00,,,-99.99,Homeseer,2013-02-06 20:30:00,
2013-02-06 15:40:00,75.7,60.9,29.91,SE,135,5.8,5.8,52,0.00,,,-99.99,Homeseer,2013-02-06 20:40:00,
2013-02-06 15:50:00,75.6,60.8,29.91,SE,135,5.8,5.8,52,0.00,,,-99.99,Homeseer,2013-02-06 20:50:00,
2013-02-06 16:00:00,75.6,60.0,29.91,SSE,157,3.8,7.2,50,0.00,,,-99.99,Homeseer,2013-02-06 21:00:00,
2013-02-06 16:10:00,75.2,59.2,29.91,SSE,157,3.8,3.8,49,0.00,,,-99.99,Homeseer,2013-02-06 21:10:00,
2013-02-06 16:20:00,75.2,58.7,29.91,ESE,112,4.7,4.7,48,0.00,,,-99.99,Homeseer,2013-02-06 21:20:00,
2013-02-06 16:30:00,75.2,59.6,29.91,ESE,112,4.9,4.9,50,0.00,,,-99.99,Homeseer,2013-02-06 21:30:00,
2013-02-06 16:40:00,75.0,59.4,29.91,SE,135,4.7,6.3,50,0.00,,,-99.99,Homeseer,2013-02-06 21:40:00,
2013-02-06 16:50:00,75.0,59.9,29.91,ESE,112,4.9,4.9,51,0.00,,,-99.99,Homeseer,2013-02-06 21:50:00,
2013-02-06 17:00:00,74.8,60.5,29.91,ESE,112,3.1,4.0,53,0.00,,,-99.99,Homeseer,2013-02-06 22:00:00,
2013-02-06 17:10:00,74.7,60.0,29.91,SE,135,5.8,5.8,52,0.00,,,-99.99,Homeseer,2013-02-06 22:10:00,
2013-02-06 17:20:00,74.5,60.2,29.91,SSE,157,3.4,3.4,53,0.00,,,-99.99,Homeseer,2013-02-06 22:20:00,
2013-02-06 17:30:00,74.3,60.0,29.91,SSE,157,3.1,4.7,53,0.00,,,-99.99,Homeseer,2013-02-06 22:30:00,
2013-02-06 17:40:00,74.1,61.4,29.91,SW,225,4.7,7.8,57,0.00,,,-99.99,Homeseer,2013-02-06 22:40:00,
2013-02-06 17:50:00,73.9,61.2,29.91,ESE,112,4.0,4.0,57,0.00,,,-99.99,Homeseer,2013-02-06 22:50:00,
2013-02-06 18:00:00,73.8,61.1,29.91,ESE,112,4.9,6.5,57,0.00,,,-99.99,Homeseer,2013-02-06 23:00:00,
2013-02-06 18:10:00,73.6,60.6,29.91,SSE,157,4.7,4.9,56,0.00,,,-99.99,Homeseer,2013-02-06 23:10:00,
2013-02-06 18:20:00,73.6,59.8,29.91,ESE,112,3.6,8.1,54,0.00,,,-99.99,Homeseer,2013-02-06 23:20:00,
2013-02-06 18:30:00,73.4,59.2,29.91,SSE,157,4.0,4.0,53,0.00,,,-99.99,Homeseer,2013-02-06 23:30:00,
2013-02-06 18:40:00,73.4,59.2,29.91,ENE,67,4.0,4.0,53,0.00,,,-99.99,Homeseer,2013-02-06 23:40:00,
2013-02-06 18:50:00,73.4,58.0,29.91,SSE,157,3.4,4.0,50,0.00,,,-99.99,Homeseer,2013-02-06 23:50:00,
2013-02-06 19:00:00,73.2,58.2,29.91,ESE,112,4.3,5.4,51,0.00,,,-99.99,Homeseer,2013-02-07 00:00:00,
2013-02-06 19:10:00,73.2,58.2,29.91,SSE,157,4.7,4.7,51,0.00,,,-99.99,Homeseer,2013-02-07 00:10:00,
2013-02-06 19:20:00,73.2,57.8,29.91,ESE,112,4.0,6.5,50,0.00,,,-99.99,Homeseer,2013-02-07 00:20:00,
2013-02-06 19:30:00,73.2,58.2,29.94,South,180,5.4,5.4,51,0.00,,,-99.99,Homeseer,2013-02-07 00:30:00,
2013-02-06 19:40:00,73.2,57.8,29.94,SE,135,3.6,3.8,50,0.00,,,-99.99,Homeseer,2013-02-07 00:40:00,
2013-02-06 19:50:00,73.0,58.4,29.94,SSE,157,3.4,7.4,52,0.00,,,-99.99,Homeseer,2013-02-07 00:50:00,
2013-02-06 20:00:00,73.0,58.9,29.94,ESE,112,4.9,6.0,53,0.00,,,-99.99,Homeseer,2013-02-07 01:00:00,
2013-02-06 20:10:00,73.0,59.3,29.94,ESE,112,3.8,3.8,54,0.00,,,-99.99,Homeseer,2013-02-07 01:10:00,
2013-02-06 20:20:00,73.0,60.0,29.94,North,0,2.5,2.7,56,0.00,,,-99.99,Homeseer,2013-02-07 01:20:00,
2013-02-06 20:30:00,73.0,60.0,29.94,SSE,157,5.4,5.4,56,0.00,,,-99.99,Homeseer,2013-02-07 01:30:00,
2013-02-06 20:40:00,73.0,60.4,29.94,South,180,5.8,5.8,57,0.00,,,-99.99,Homeseer,2013-02-07 01:40:00,
2013-02-06 20:50:00,73.0,60.8,29.94,SSE,157,5.6,7.6,58,0.00,,,-99.99,Homeseer,2013-02-07 01:50:00,
2013-02-06 21:00:00,73.0,60.4,29.94,SE,135,5.4,6.5,57,0.00,,,-99.99,Homeseer,2013-02-07 02:00:00,
2013-02-06 21:10:00,72.9,61.1,29.94,ESE,112,5.6,6.5,59,0.00,,,-99.99,Homeseer,2013-02-07 02:10:00,
2013-02-06 21:20:00,72.9,61.4,29.94,ESE,112,5.4,5.4,60,0.00,,,-99.99,Homeseer,2013-02-07 02:20:00,
2013-02-06 21:30:00,72.9,61.1,29.94,SSE,157,4.9,4.9,59,0.00,,,-99.99,Homeseer,2013-02-07 02:30:00,
2013-02-06 21:40:00,73.0,61.9,29.94,SSE,157,7.4,7.4,61,0.00,,,-99.99,Homeseer,2013-02-07 02:40:00,
2013-02-06 21:50:00,72.9,61.1,29.94,ESE,112,5.8,8.5,59,0.00,,,-99.99,Homeseer,2013-02-07 02:50:00,
2013-02-06 22:00:00,72.9,61.1,29.94,WSW,247,4.3,4.3,59,0.00,,,-99.99,Homeseer,2013-02-07 03:00:00,
2013-02-06 22:10:00,72.9,61.1,29.94,SE,135,6.3,6.3,59,0.00,,,-99.99,Homeseer,2013-02-07 03:10:00,
2013-02-06 22:20:00,73.0,61.5,29.94,South,180,7.6,7.6,60,0.00,,,-99.99,Homeseer,2013-02-07 03:20:00,
2013-02-06 22:30:00,73.0,61.9,29.94,South,180,3.8,4.9,61,0.00,,,-99.99,Homeseer,2013-02-07 03:30:00,
2013-02-06 22:40:00,73.0,61.2,29.94,SE,135,7.2,7.2,59,0.00,,,-99.99,Homeseer,2013-02-07 03:40:00,
2013-02-06 22:50:00,73.0,60.8,29.94,SSE,157,9.0,9.0,58,0.00,,,-99.99,Homeseer,2013-02-07 03:50:00,
2013-02-06 23:00:00,72.9,61.4,29.94,ESE,112,6.7,6.7,60,0.00,,,-99.99,Homeseer,2013-02-07 04:00:00,
2013-02-06 23:10:00,73.0,60.8,29.94,North,0,8.7,8.7,58,0.00,,,-99.99,Homeseer,2013-02-07 04:10:00,
2013-02-06 23:20:00,73.0,61.5,29.94,SE,135,4.5,5.8,60,0.00,,,-99.99,Homeseer,2013-02-07 04:20:00,
2013-02-06 23:30:00,72.9,61.4,29.94,North,0,6.0,7.6,60,0.00,,,-99.99,Homeseer,2013-02-07 04:30:00,
2013-02-06 23:40:00,72.9,60.7,29.94,South,180,4.9,7.6,58,0.00,,,-99.99,Homeseer,2013-02-07 04:40:00,
2013-02-06 23:50:00,72.9,61.4,29.94,ESE,112,7.6,7.6,60,0.00,,,-99.99,Homeseer,2013-02-07 04:50:00,